sensor_id;sensor_type;location;lat;lon;timestamp;temperature;humidity
26803;DHT22;14378;51.796;5.808;2024-01-15T00:01:16;3.20;99.90
26803;DHT22;14378;51.796;5.808;2024-01-15T00:03:17;3.20;99.90
26803;DHT22;14378;51.796;5.808;2024-01-15T00:05:18;3.10;99.90
26803;DHT22;14378;51.796;5.808;2024-01-15T00:07:19;3.20;99.90
26803;DHT22;14378;51.796;5.808;2024-01-15T00:09:19;3.10;99.90
26803;DHT22;14378;51.796;5.808;2024-01-15T00:11:20;3.10;99.90
26803;DHT22;14378;51.796;5.808;2024-01-15T00:13:21;3.10;99.90
26803;DHT22;14378;51.796;5.808;2024-01-15T00:15:22;3.10;99.90
26803;DHT22;14378;51.796;5.808;2024-01-15T00:17:23;3.00;99.90
26803;DHT22;14378;51.796;5.808;2024-01-15T00:19:24;3.00;99.90
26803;DHT22;14378;51.796;5.808;2024-01-15T00:21:31;2.90;99.90
26803;DHT22;14378;51.796;5.808;2024-01-15T00:23:34;2.90;99.90
26803;DHT22;14378;51.796;5.808;2024-01-15T00:25:35;2.80;99.90
26803;DHT22;14378;51.796;5.808;2024-01-15T00:27:36;2.80;99.90
26803;DHT22;14378;51.796;5.808;2024-01-15T00:29:36;2.70;99.90
26803;DHT22;14378;51.796;5.808;2024-01-15T00:31:43;2.70;99.90
26803;DHT22;14378;51.796;5.808;2024-01-15T00:33:46;2.70;99.90
26803;DHT22;14378;51.796;5.808;2024-01-15T00:35:47;2.70;99.90
26803;DHT22;14378;51.796;5.808;2024-01-15T00:37:49;2.60;99.90
26803;DHT22;14378;51.796;5.808;2024-01-15T00:39:50;2.60;99.90
26803;DHT22;14378;51.796;5.808;2024-01-15T00:41:51;2.60;99.90
26803;DHT22;14378;51.796;5.808;2024-01-15T00:43:52;2.70;99.90
26803;DHT22;14378;51.796;5.808;2024-01-15T00:45:53;2.70;99.90
26803;DHT22;14378;51.796;5.808;2024-01-15T00:47:54;2.70;99.90
26803;DHT22;14378;51.796;5.808;2024-01-15T00:49:59;2.60;99.90
26803;DHT22;14378;51.796;5.808;2024-01-15T00:52:00;2.60;99.90
26803;DHT22;14378;51.796;5.808;2024-01-15T00:54:07;2.60;99.90
26803;DHT22;14378;51.796;5.808;2024-01-15T00:56:08;2.60;99.90
26803;DHT22;14378;51.796;5.808;2024-01-15T00:58:10;2.60;99.90
26803;DHT22;14378;51.796;5.808;2024-01-15T01:00:11;2.60;99.90
26803;DHT22;14378;51.796;5.808;2024-01-15T01:02:12;2.60;99.90
26803;DHT22;14378;51.796;5.808;2024-01-15T01:04:13;2.60;99.90
26803;DHT22;14378;51.796;5.808;2024-01-15T01:06:14;2.60;99.90
26803;DHT22;14378;51.796;5.808;2024-01-15T01:08:16;2.50;99.90
26803;DHT22;14378;51.796;5.808;2024-01-15T01:10:16;2.50;99.90
26803;DHT22;14378;51.796;5.808;2024-01-15T01:12:21;2.50;99.90
26803;DHT22;14378;51.796;5.808;2024-01-15T01:14:22;2.60;99.90
26803;DHT22;14378;51.796;5.808;2024-01-15T01:16:22;2.60;99.90
26803;DHT22;14378;51.796;5.808;2024-01-15T01:18:23;2.60;99.90
26803;DHT22;14378;51.796;5.808;2024-01-15T01:20:24;2.60;99.90
26803;DHT22;14378;51.796;5.808;2024-01-15T01:22:25;2.50;99.90
26803;DHT22;14378;51.796;5.808;2024-01-15T01:24:26;2.50;99.90
26803;DHT22;14378;51.796;5.808;2024-01-15T01:26:29;2.50;99.90
26803;DHT22;14378;51.796;5.808;2024-01-15T01:28:30;2.50;99.90
26803;DHT22;14378;51.796;5.808;2024-01-15T01:30:31;2.40;99.90
26803;DHT22;14378;51.796;5.808;2024-01-15T01:32:32;2.40;99.90
26803;DHT22;14378;51.796;5.808;2024-01-15T01:34:40;2.40;99.90
26803;DHT22;14378;51.796;5.808;2024-01-15T01:36:43;2.40;99.90
26803;DHT22;14378;51.796;5.808;2024-01-15T01:38:44;2.40;99.90
26803;DHT22;14378;51.796;5.808;2024-01-15T01:40:45;2.40;99.90
26803;DHT22;14378;51.796;5.808;2024-01-15T01:42:46;2.40;99.90
26803;DHT22;14378;51.796;5.808;2024-01-15T01:44:47;2.40;99.90
26803;DHT22;14378;51.796;5.808;2024-01-15T01:46:48;2.40;99.90
26803;DHT22;14378;51.796;5.808;2024-01-15T01:48:50;2.40;99.90
26803;DHT22;14378;51.796;5.808;2024-01-15T01:50:53;2.30;99.90
26803;DHT22;14378;51.796;5.808;2024-01-15T01:52:55;2.30;99.90
26803;DHT22;14378;51.796;5.808;2024-01-15T01:54:57;2.30;99.90
26803;DHT22;14378;51.796;5.808;2024-01-15T01:56:59;2.30;99.90
26803;DHT22;14378;51.796;5.808;2024-01-15T01:59:01;2.30;99.90
26803;DHT22;14378;51.796;5.808;2024-01-15T02:01:03;2.30;99.90
26803;DHT22;14378;51.796;5.808;2024-01-15T02:03:04;2.30;99.90
26803;DHT22;14378;51.796;5.808;2024-01-15T02:05:07;2.30;99.90
26803;DHT22;14378;51.796;5.808;2024-01-15T02:07:09;2.30;99.90
26803;DHT22;14378;51.796;5.808;2024-01-15T02:09:11;2.20;99.90
26803;DHT22;14378;51.796;5.808;2024-01-15T02:11:15;2.20;99.90
26803;DHT22;14378;51.796;5.808;2024-01-15T02:13:18;2.10;99.90
26803;DHT22;14378;51.796;5.808;2024-01-15T02:15:19;2.10;99.90
26803;DHT22;14378;51.796;5.808;2024-01-15T02:17:20;2.10;99.90
26803;DHT22;14378;51.796;5.808;2024-01-15T02:19:21;2.10;99.90
26803;DHT22;14378;51.796;5.808;2024-01-15T02:21:21;2.10;99.90
26803;DHT22;14378;51.796;5.808;2024-01-15T02:23:22;2.10;99.90
26803;DHT22;14378;51.796;5.808;2024-01-15T02:25:23;2.10;99.90
26803;DHT22;14378;51.796;5.808;2024-01-15T02:27:24;2.10;99.90
26803;DHT22;14378;51.796;5.808;2024-01-15T02:29:25;2.10;99.90
26803;DHT22;14378;51.796;5.808;2024-01-15T02:31:27;2.10;99.90
26803;DHT22;14378;51.796;5.808;2024-01-15T02:33:27;2.10;99.90
26803;DHT22;14378;51.796;5.808;2024-01-15T02:35:28;2.00;99.90
26803;DHT22;14378;51.796;5.808;2024-01-15T02:37:29;2.00;99.90
26803;DHT22;14378;51.796;5.808;2024-01-15T02:39:30;2.00;99.90
26803;DHT22;14378;51.796;5.808;2024-01-15T02:41:31;2.00;99.90
26803;DHT22;14378;51.796;5.808;2024-01-15T02:43:32;2.00;99.90
26803;DHT22;14378;51.796;5.808;2024-01-15T02:45:32;2.00;99.90
26803;DHT22;14378;51.796;5.808;2024-01-15T02:47:33;2.00;99.90
26803;DHT22;14378;51.796;5.808;2024-01-15T02:49:34;2.00;99.90
26803;DHT22;14378;51.796;5.808;2024-01-15T02:51:35;2.00;99.90
26803;DHT22;14378;51.796;5.808;2024-01-15T02:53:36;2.00;99.90
26803;DHT22;14378;51.796;5.808;2024-01-15T02:55:37;2.00;99.90
26803;DHT22;14378;51.796;5.808;2024-01-15T02:57:38;2.00;99.90
26803;DHT22;14378;51.796;5.808;2024-01-15T02:59:39;2.10;99.90
26803;DHT22;14378;51.796;5.808;2024-01-15T03:01:40;2.10;99.90
26803;DHT22;14378;51.796;5.808;2024-01-15T03:03:41;2.10;99.90
26803;DHT22;14378;51.796;5.808;2024-01-15T03:05:42;2.10;99.90
26803;DHT22;14378;51.796;5.808;2024-01-15T03:07:43;2.10;99.90
26803;DHT22;14378;51.796;5.808;2024-01-15T03:09:44;2.10;99.90
26803;DHT22;14378;51.796;5.808;2024-01-15T03:11:45;2.10;99.90
26803;DHT22;14378;51.796;5.808;2024-01-15T03:13:46;2.10;99.90
26803;DHT22;14378;51.796;5.808;2024-01-15T03:15:47;2.20;99.90
26803;DHT22;14378;51.796;5.808;2024-01-15T03:17:48;2.20;99.90
26803;DHT22;14378;51.796;5.808;2024-01-15T03:19:54;2.10;99.90
26803;DHT22;14378;51.796;5.808;2024-01-15T03:21:56;2.10;99.90
26803;DHT22;14378;51.796;5.808;2024-01-15T03:23:56;2.10;99.90
26803;DHT22;14378;51.796;5.808;2024-01-15T03:25:57;2.10;99.90
26803;DHT22;14378;51.796;5.808;2024-01-15T03:28:00;2.10;99.90
26803;DHT22;14378;51.796;5.808;2024-01-15T03:30:01;2.10;99.90
26803;DHT22;14378;51.796;5.808;2024-01-15T03:32:04;2.10;99.90
26803;DHT22;14378;51.796;5.808;2024-01-15T03:34:05;2.10;99.90
26803;DHT22;14378;51.796;5.808;2024-01-15T03:36:06;2.10;99.90
26803;DHT22;14378;51.796;5.808;2024-01-15T03:38:07;2.10;99.90
26803;DHT22;14378;51.796;5.808;2024-01-15T03:40:09;2.10;99.90
26803;DHT22;14378;51.796;5.808;2024-01-15T03:42:10;2.10;99.90
26803;DHT22;14378;51.796;5.808;2024-01-15T03:44:11;2.10;99.90
26803;DHT22;14378;51.796;5.808;2024-01-15T03:46:12;2.10;99.90
26803;DHT22;14378;51.796;5.808;2024-01-15T03:48:13;2.10;99.90
26803;DHT22;14378;51.796;5.808;2024-01-15T03:50:14;2.10;99.90
26803;DHT22;14378;51.796;5.808;2024-01-15T03:52:14;2.00;99.90
26803;DHT22;14378;51.796;5.808;2024-01-15T03:54:15;2.10;99.90
26803;DHT22;14378;51.796;5.808;2024-01-15T03:56:16;2.10;99.90
26803;DHT22;14378;51.796;5.808;2024-01-15T03:58:18;2.00;99.90
26803;DHT22;14378;51.796;5.808;2024-01-15T04:00:19;2.00;99.90
26803;DHT22;14378;51.796;5.808;2024-01-15T04:02:19;2.00;99.90
26803;DHT22;14378;51.796;5.808;2024-01-15T04:04:20;2.00;99.90
26803;DHT22;14378;51.796;5.808;2024-01-15T04:06:21;2.00;99.90
26803;DHT22;14378;51.796;5.808;2024-01-15T04:08:22;2.00;99.90
26803;DHT22;14378;51.796;5.808;2024-01-15T04:10:23;2.00;99.90
26803;DHT22;14378;51.796;5.808;2024-01-15T04:12:23;2.00;99.90
26803;DHT22;14378;51.796;5.808;2024-01-15T04:14:24;2.00;99.90
26803;DHT22;14378;51.796;5.808;2024-01-15T04:16:25;1.90;99.90
26803;DHT22;14378;51.796;5.808;2024-01-15T04:18:26;2.00;99.90
26803;DHT22;14378;51.796;5.808;2024-01-15T04:20:27;2.00;99.90
26803;DHT22;14378;51.796;5.808;2024-01-15T04:22:28;1.90;99.90
26803;DHT22;14378;51.796;5.808;2024-01-15T04:24:31;1.90;99.90
26803;DHT22;14378;51.796;5.808;2024-01-15T04:26:32;1.80;99.90
26803;DHT22;14378;51.796;5.808;2024-01-15T04:28:33;1.90;99.90
26803;DHT22;14378;51.796;5.808;2024-01-15T04:30:34;1.90;99.90
26803;DHT22;14378;51.796;5.808;2024-01-15T04:32:35;1.90;99.90
26803;DHT22;14378;51.796;5.808;2024-01-15T04:34:36;1.90;99.90
26803;DHT22;14378;51.796;5.808;2024-01-15T04:36:40;1.80;99.90
26803;DHT22;14378;51.796;5.808;2024-01-15T04:38:42;1.80;99.90
26803;DHT22;14378;51.796;5.808;2024-01-15T04:40:43;1.80;99.90
26803;DHT22;14378;51.796;5.808;2024-01-15T04:42:44;1.80;99.90
26803;DHT22;14378;51.796;5.808;2024-01-15T04:44:48;1.80;99.90
26803;DHT22;14378;51.796;5.808;2024-01-15T04:46:49;1.80;99.90
26803;DHT22;14378;51.796;5.808;2024-01-15T04:48:50;1.90;99.90
26803;DHT22;14378;51.796;5.808;2024-01-15T04:50:52;1.90;99.90
26803;DHT22;14378;51.796;5.808;2024-01-15T04:52:53;1.90;99.90
26803;DHT22;14378;51.796;5.808;2024-01-15T04:54:53;1.90;99.90
26803;DHT22;14378;51.796;5.808;2024-01-15T04:56:54;1.90;99.90
26803;DHT22;14378;51.796;5.808;2024-01-15T04:58:56;1.90;99.90
26803;DHT22;14378;51.796;5.808;2024-01-15T05:00:57;1.90;99.90
26803;DHT22;14378;51.796;5.808;2024-01-15T05:02:58;1.90;99.90
26803;DHT22;14378;51.796;5.808;2024-01-15T05:04:59;1.90;99.90
26803;DHT22;14378;51.796;5.808;2024-01-15T05:07:00;1.90;99.90
26803;DHT22;14378;51.796;5.808;2024-01-15T05:09:01;2.00;99.90
26803;DHT22;14378;51.796;5.808;2024-01-15T05:11:02;2.00;99.90
26803;DHT22;14378;51.796;5.808;2024-01-15T05:13:03;2.00;99.90
26803;DHT22;14378;51.796;5.808;2024-01-15T05:15:04;2.00;99.90
26803;DHT22;14378;51.796;5.808;2024-01-15T05:17:05;2.00;99.90
26803;DHT22;14378;51.796;5.808;2024-01-15T05:19:07;2.10;99.90
26803;DHT22;14378;51.796;5.808;2024-01-15T05:21:09;2.10;99.90
26803;DHT22;14378;51.796;5.808;2024-01-15T05:23:10;2.20;99.90
26803;DHT22;14378;51.796;5.808;2024-01-15T05:25:11;2.20;99.90
26803;DHT22;14378;51.796;5.808;2024-01-15T05:27:12;2.20;99.90
26803;DHT22;14378;51.796;5.808;2024-01-15T05:29:13;2.20;99.90
26803;DHT22;14378;51.796;5.808;2024-01-15T05:31:13;2.30;99.90
26803;DHT22;14378;51.796;5.808;2024-01-15T05:33:14;2.30;99.90
26803;DHT22;14378;51.796;5.808;2024-01-15T05:35:15;2.30;99.90
26803;DHT22;14378;51.796;5.808;2024-01-15T05:37:16;2.30;99.90
26803;DHT22;14378;51.796;5.808;2024-01-15T05:39:17;2.30;99.90
26803;DHT22;14378;51.796;5.808;2024-01-15T05:41:18;2.30;99.90
26803;DHT22;14378;51.796;5.808;2024-01-15T05:43:19;2.30;99.90
26803;DHT22;14378;51.796;5.808;2024-01-15T05:45:20;2.20;99.90
26803;DHT22;14378;51.796;5.808;2024-01-15T05:47:21;2.20;99.90
26803;DHT22;14378;51.796;5.808;2024-01-15T05:49:21;2.20;99.90
26803;DHT22;14378;51.796;5.808;2024-01-15T05:51:22;2.20;99.90
26803;DHT22;14378;51.796;5.808;2024-01-15T05:53:23;2.30;99.90
26803;DHT22;14378;51.796;5.808;2024-01-15T05:55:24;2.20;99.90
26803;DHT22;14378;51.796;5.808;2024-01-15T05:57:25;2.20;99.90
26803;DHT22;14378;51.796;5.808;2024-01-15T05:59:25;2.20;99.90
26803;DHT22;14378;51.796;5.808;2024-01-15T06:01:26;2.30;99.90
26803;DHT22;14378;51.796;5.808;2024-01-15T06:03:27;2.30;99.90
26803;DHT22;14378;51.796;5.808;2024-01-15T06:05:28;2.30;99.90
26803;DHT22;14378;51.796;5.808;2024-01-15T06:07:29;2.30;99.90
26803;DHT22;14378;51.796;5.808;2024-01-15T06:09:30;2.40;99.90
26803;DHT22;14378;51.796;5.808;2024-01-15T06:11:32;2.40;99.90
26803;DHT22;14378;51.796;5.808;2024-01-15T06:13:33;2.50;99.90
26803;DHT22;14378;51.796;5.808;2024-01-15T06:15:34;2.40;99.90
26803;DHT22;14378;51.796;5.808;2024-01-15T06:17:35;2.30;99.90
26803;DHT22;14378;51.796;5.808;2024-01-15T06:19:36;2.40;99.90
26803;DHT22;14378;51.796;5.808;2024-01-15T06:21:37;2.40;99.90
26803;DHT22;14378;51.796;5.808;2024-01-15T06:23:38;2.30;99.90
26803;DHT22;14378;51.796;5.808;2024-01-15T06:25:38;2.30;99.90
26803;DHT22;14378;51.796;5.808;2024-01-15T06:27:40;2.30;99.90
26803;DHT22;14378;51.796;5.808;2024-01-15T06:29:45;2.30;99.90
26803;DHT22;14378;51.796;5.808;2024-01-15T06:31:49;2.30;99.90
26803;DHT22;14378;51.796;5.808;2024-01-15T06:33:49;2.30;99.90
26803;DHT22;14378;51.796;5.808;2024-01-15T06:35:51;2.40;99.90
26803;DHT22;14378;51.796;5.808;2024-01-15T06:37:52;2.40;99.90
26803;DHT22;14378;51.796;5.808;2024-01-15T06:39:54;2.40;99.90
26803;DHT22;14378;51.796;5.808;2024-01-15T06:42:01;2.40;99.90
26803;DHT22;14378;51.796;5.808;2024-01-15T06:44:02;2.30;99.90
26803;DHT22;14378;51.796;5.808;2024-01-15T06:46:03;2.30;99.90
26803;DHT22;14378;51.796;5.808;2024-01-15T06:48:05;2.30;99.90
26803;DHT22;14378;51.796;5.808;2024-01-15T06:50:06;2.30;99.90
26803;DHT22;14378;51.796;5.808;2024-01-15T06:52:07;2.30;99.90
26803;DHT22;14378;51.796;5.808;2024-01-15T06:54:08;2.30;99.90
26803;DHT22;14378;51.796;5.808;2024-01-15T06:56:10;2.30;99.90
26803;DHT22;14378;51.796;5.808;2024-01-15T06:58:11;2.30;99.90
26803;DHT22;14378;51.796;5.808;2024-01-15T07:00:12;2.40;99.90
26803;DHT22;14378;51.796;5.808;2024-01-15T07:02:15;2.40;99.90
26803;DHT22;14378;51.796;5.808;2024-01-15T07:04:16;2.40;99.90
26803;DHT22;14378;51.796;5.808;2024-01-15T07:06:16;2.40;99.90
26803;DHT22;14378;51.796;5.808;2024-01-15T07:08:17;2.40;99.90
26803;DHT22;14378;51.796;5.808;2024-01-15T07:10:18;2.50;99.90
26803;DHT22;14378;51.796;5.808;2024-01-15T07:12:19;2.50;99.90
26803;DHT22;14378;51.796;5.808;2024-01-15T07:14:20;2.60;99.90
26803;DHT22;14378;51.796;5.808;2024-01-15T07:16:21;2.50;99.90
26803;DHT22;14378;51.796;5.808;2024-01-15T07:18:21;2.60;99.90
26803;DHT22;14378;51.796;5.808;2024-01-15T07:20:22;2.60;99.90
26803;DHT22;14378;51.796;5.808;2024-01-15T07:22:23;2.60;99.90
26803;DHT22;14378;51.796;5.808;2024-01-15T07:24:24;2.60;99.90
26803;DHT22;14378;51.796;5.808;2024-01-15T07:26:25;2.70;99.90
26803;DHT22;14378;51.796;5.808;2024-01-15T07:28:28;2.70;99.90
26803;DHT22;14378;51.796;5.808;2024-01-15T07:30:29;2.70;99.90
26803;DHT22;14378;51.796;5.808;2024-01-15T07:32:30;2.70;99.90
26803;DHT22;14378;51.796;5.808;2024-01-15T07:34:32;2.70;99.90
26803;DHT22;14378;51.796;5.808;2024-01-15T07:36:32;2.70;99.90
26803;DHT22;14378;51.796;5.808;2024-01-15T07:38:33;2.70;99.90
26803;DHT22;14378;51.796;5.808;2024-01-15T07:40:34;2.80;99.90
26803;DHT22;14378;51.796;5.808;2024-01-15T07:42:35;2.80;99.90
26803;DHT22;14378;51.796;5.808;2024-01-15T07:44:37;2.80;99.90
26803;DHT22;14378;51.796;5.808;2024-01-15T07:46:38;2.80;99.90
26803;DHT22;14378;51.796;5.808;2024-01-15T07:48:39;2.80;99.90
26803;DHT22;14378;51.796;5.808;2024-01-15T07:50:40;2.80;99.90
26803;DHT22;14378;51.796;5.808;2024-01-15T07:52:41;2.70;99.90
26803;DHT22;14378;51.796;5.808;2024-01-15T07:54:45;2.60;99.90
26803;DHT22;14378;51.796;5.808;2024-01-15T07:56:59;2.60;99.90
26803;DHT22;14378;51.796;5.808;2024-01-15T07:59:01;2.50;99.90
26803;DHT22;14378;51.796;5.808;2024-01-15T08:01:01;2.50;99.90
26803;DHT22;14378;51.796;5.808;2024-01-15T08:03:02;2.40;99.90
26803;DHT22;14378;51.796;5.808;2024-01-15T08:05:03;2.40;99.90
26803;DHT22;14378;51.796;5.808;2024-01-15T08:07:05;2.40;99.90
26803;DHT22;14378;51.796;5.808;2024-01-15T08:09:07;2.50;99.90
26803;DHT22;14378;51.796;5.808;2024-01-15T08:11:09;2.50;99.90
26803;DHT22;14378;51.796;5.808;2024-01-15T08:13:10;2.50;99.90
26803;DHT22;14378;51.796;5.808;2024-01-15T08:15:11;2.60;99.90
26803;DHT22;14378;51.796;5.808;2024-01-15T08:17:12;2.60;99.90
26803;DHT22;14378;51.796;5.808;2024-01-15T08:19:13;2.70;99.90
26803;DHT22;14378;51.796;5.808;2024-01-15T08:21:15;2.70;99.90
26803;DHT22;14378;51.796;5.808;2024-01-15T08:23:16;2.60;99.90
26803;DHT22;14378;51.796;5.808;2024-01-15T08:25:17;2.60;99.90
26803;DHT22;14378;51.796;5.808;2024-01-15T08:27:18;2.60;99.90
26803;DHT22;14378;51.796;5.808;2024-01-15T08:29:20;2.70;99.90
26803;DHT22;14378;51.796;5.808;2024-01-15T08:31:22;2.70;99.90
26803;DHT22;14378;51.796;5.808;2024-01-15T08:33:23;2.70;99.90
26803;DHT22;14378;51.796;5.808;2024-01-15T08:35:24;2.70;99.90
26803;DHT22;14378;51.796;5.808;2024-01-15T08:37:25;2.60;99.90
26803;DHT22;14378;51.796;5.808;2024-01-15T08:39:26;2.50;99.90
26803;DHT22;14378;51.796;5.808;2024-01-15T08:41:27;2.40;99.90
26803;DHT22;14378;51.796;5.808;2024-01-15T08:43:28;2.40;99.90
26803;DHT22;14378;51.796;5.808;2024-01-15T08:45:29;2.30;99.90
26803;DHT22;14378;51.796;5.808;2024-01-15T08:47:30;2.30;99.90
26803;DHT22;14378;51.796;5.808;2024-01-15T08:49:31;2.30;99.90
26803;DHT22;14378;51.796;5.808;2024-01-15T08:51:31;2.30;99.90
26803;DHT22;14378;51.796;5.808;2024-01-15T08:53:32;2.30;99.90
26803;DHT22;14378;51.796;5.808;2024-01-15T08:55:33;2.30;99.90
26803;DHT22;14378;51.796;5.808;2024-01-15T08:57:34;2.40;99.90
26803;DHT22;14378;51.796;5.808;2024-01-15T08:59:35;2.40;99.90
26803;DHT22;14378;51.796;5.808;2024-01-15T09:01:37;2.40;99.90
26803;DHT22;14378;51.796;5.808;2024-01-15T09:03:39;2.40;99.90
26803;DHT22;14378;51.796;5.808;2024-01-15T09:05:43;2.40;99.90
26803;DHT22;14378;51.796;5.808;2024-01-15T09:07:43;2.40;99.90
26803;DHT22;14378;51.796;5.808;2024-01-15T09:09:46;2.40;99.90
26803;DHT22;14378;51.796;5.808;2024-01-15T09:11:47;2.40;99.90
26803;DHT22;14378;51.796;5.808;2024-01-15T09:13:48;2.40;99.90
26803;DHT22;14378;51.796;5.808;2024-01-15T09:15:49;2.40;99.90
26803;DHT22;14378;51.796;5.808;2024-01-15T09:17:49;2.40;99.90
26803;DHT22;14378;51.796;5.808;2024-01-15T09:19:50;2.40;99.90
26803;DHT22;14378;51.796;5.808;2024-01-15T09:21:51;2.40;99.90
26803;DHT22;14378;51.796;5.808;2024-01-15T09:23:52;2.40;99.90
26803;DHT22;14378;51.796;5.808;2024-01-15T09:25:53;2.50;99.90
26803;DHT22;14378;51.796;5.808;2024-01-15T09:27:54;2.50;99.90
26803;DHT22;14378;51.796;5.808;2024-01-15T09:29:55;2.50;99.90
26803;DHT22;14378;51.796;5.808;2024-01-15T09:31:56;2.50;99.90
26803;DHT22;14378;51.796;5.808;2024-01-15T09:33:57;2.50;99.90
26803;DHT22;14378;51.796;5.808;2024-01-15T09:36:04;2.60;99.90
26803;DHT22;14378;51.796;5.808;2024-01-15T09:38:05;2.60;99.90
26803;DHT22;14378;51.796;5.808;2024-01-15T09:40:08;2.60;99.90
26803;DHT22;14378;51.796;5.808;2024-01-15T09:42:09;2.60;99.90
26803;DHT22;14378;51.796;5.808;2024-01-15T09:44:12;2.60;99.90
26803;DHT22;14378;51.796;5.808;2024-01-15T09:46:14;2.60;99.90
26803;DHT22;14378;51.796;5.808;2024-01-15T09:48:16;2.60;99.90
26803;DHT22;14378;51.796;5.808;2024-01-15T09:50:17;2.60;99.90
26803;DHT22;14378;51.796;5.808;2024-01-15T09:52:19;2.60;99.90
26803;DHT22;14378;51.796;5.808;2024-01-15T09:54:20;2.60;99.90
26803;DHT22;14378;51.796;5.808;2024-01-15T09:56:21;2.60;99.90
26803;DHT22;14378;51.796;5.808;2024-01-15T09:58:23;2.70;99.90
26803;DHT22;14378;51.796;5.808;2024-01-15T10:00:23;2.70;99.90
26803;DHT22;14378;51.796;5.808;2024-01-15T10:02:25;2.70;99.90
26803;DHT22;14378;51.796;5.808;2024-01-15T10:04:26;2.80;99.90
26803;DHT22;14378;51.796;5.808;2024-01-15T10:06:27;2.90;99.90
26803;DHT22;14378;51.796;5.808;2024-01-15T10:08:28;2.90;99.90
26803;DHT22;14378;51.796;5.808;2024-01-15T10:10:32;2.80;99.90
26803;DHT22;14378;51.796;5.808;2024-01-15T10:12:33;2.80;99.90
26803;DHT22;14378;51.796;5.808;2024-01-15T10:14:35;2.80;99.90
26803;DHT22;14378;51.796;5.808;2024-01-15T10:16:37;2.80;99.90
26803;DHT22;14378;51.796;5.808;2024-01-15T10:18:38;2.80;99.90
26803;DHT22;14378;51.796;5.808;2024-01-15T10:20:39;2.80;99.90
26803;DHT22;14378;51.796;5.808;2024-01-15T10:22:45;2.70;99.90
26803;DHT22;14378;51.796;5.808;2024-01-15T10:24:48;2.70;99.90
26803;DHT22;14378;51.796;5.808;2024-01-15T10:26:49;2.70;99.90
26803;DHT22;14378;51.796;5.808;2024-01-15T10:28:50;2.70;99.90
26803;DHT22;14378;51.796;5.808;2024-01-15T10:30:58;2.70;99.90
26803;DHT22;14378;51.796;5.808;2024-01-15T10:33:03;2.70;99.90
26803;DHT22;14378;51.796;5.808;2024-01-15T10:35:05;2.70;99.90
26803;DHT22;14378;51.796;5.808;2024-01-15T10:37:08;2.70;99.90
26803;DHT22;14378;51.796;5.808;2024-01-15T10:39:09;2.60;99.90
26803;DHT22;14378;51.796;5.808;2024-01-15T10:41:11;2.70;99.90
26803;DHT22;14378;51.796;5.808;2024-01-15T10:43:12;2.70;99.90
26803;DHT22;14378;51.796;5.808;2024-01-15T10:45:14;2.70;99.90
26803;DHT22;14378;51.796;5.808;2024-01-15T10:47:15;2.80;99.90
26803;DHT22;14378;51.796;5.808;2024-01-15T10:49:16;2.80;99.90
26803;DHT22;14378;51.796;5.808;2024-01-15T10:51:19;2.80;99.90
26803;DHT22;14378;51.796;5.808;2024-01-15T10:53:21;2.80;99.90
26803;DHT22;14378;51.796;5.808;2024-01-15T10:55:24;2.90;99.90
26803;DHT22;14378;51.796;5.808;2024-01-15T10:57:26;2.90;99.90
26803;DHT22;14378;51.796;5.808;2024-01-15T10:59:27;3.00;99.90
26803;DHT22;14378;51.796;5.808;2024-01-15T11:01:32;3.10;99.90
26803;DHT22;14378;51.796;5.808;2024-01-15T11:03:34;3.10;99.90
26803;DHT22;14378;51.796;5.808;2024-01-15T11:05:53;3.30;99.90
26803;DHT22;14378;51.796;5.808;2024-01-15T11:07:59;3.30;99.90
26803;DHT22;14378;51.796;5.808;2024-01-15T11:10:03;3.50;99.90
26803;DHT22;14378;51.796;5.808;2024-01-15T11:12:10;3.60;99.90
26803;DHT22;14378;51.796;5.808;2024-01-15T11:14:11;3.80;99.90
26803;DHT22;14378;51.796;5.808;2024-01-15T11:16:54;3.90;99.90
26803;DHT22;14378;51.796;5.808;2024-01-15T11:23:42;4.00;99.90
26803;DHT22;14378;51.796;5.808;2024-01-15T11:25:44;4.00;99.90
26803;DHT22;14378;51.796;5.808;2024-01-15T11:27:46;4.00;99.90
26803;DHT22;14378;51.796;5.808;2024-01-15T11:30:03;3.80;99.90
26803;DHT22;14378;51.796;5.808;2024-01-15T11:32:08;3.70;99.90
26803;DHT22;14378;51.796;5.808;2024-01-15T11:34:10;3.60;99.90
26803;DHT22;14378;51.796;5.808;2024-01-15T11:36:12;3.50;99.90
26803;DHT22;14378;51.796;5.808;2024-01-15T11:38:26;3.50;99.90
26803;DHT22;14378;51.796;5.808;2024-01-15T11:42:36;3.50;99.90
26803;DHT22;14378;51.796;5.808;2024-01-15T11:44:38;3.60;99.90
26803;DHT22;14378;51.796;5.808;2024-01-15T11:46:46;3.60;99.90
26803;DHT22;14378;51.796;5.808;2024-01-15T11:49:00;3.60;99.90
26803;DHT22;14378;51.796;5.808;2024-01-15T11:51:04;3.60;99.90
26803;DHT22;14378;51.796;5.808;2024-01-15T11:53:15;3.60;99.90
26803;DHT22;14378;51.796;5.808;2024-01-15T11:55:35;3.60;99.90
26803;DHT22;14378;51.796;5.808;2024-01-15T11:57:41;3.60;99.90
26803;DHT22;14378;51.796;5.808;2024-01-15T11:59:44;3.60;99.90
26803;DHT22;14378;51.796;5.808;2024-01-15T12:01:44;3.50;99.90
26803;DHT22;14378;51.796;5.808;2024-01-15T12:03:49;3.60;99.90
26803;DHT22;14378;51.796;5.808;2024-01-15T12:05:56;3.60;99.90
26803;DHT22;14378;51.796;5.808;2024-01-15T12:07:57;3.60;99.90
26803;DHT22;14378;51.796;5.808;2024-01-15T12:09:58;3.60;99.90
26803;DHT22;14378;51.796;5.808;2024-01-15T12:12:06;3.60;99.90
26803;DHT22;14378;51.796;5.808;2024-01-15T12:14:08;3.60;99.90
26803;DHT22;14378;51.796;5.808;2024-01-15T12:16:09;3.60;99.90
26803;DHT22;14378;51.796;5.808;2024-01-15T12:18:13;3.60;99.90
26803;DHT22;14378;51.796;5.808;2024-01-15T12:20:15;3.60;99.90
26803;DHT22;14378;51.796;5.808;2024-01-15T12:22:17;3.60;99.90
26803;DHT22;14378;51.796;5.808;2024-01-15T12:24:18;3.60;99.90
26803;DHT22;14378;51.796;5.808;2024-01-15T12:26:18;3.60;99.90
26803;DHT22;14378;51.796;5.808;2024-01-15T12:28:19;3.70;99.90
26803;DHT22;14378;51.796;5.808;2024-01-15T12:30:20;3.60;99.90
26803;DHT22;14378;51.796;5.808;2024-01-15T12:32:24;3.60;99.90
26803;DHT22;14378;51.796;5.808;2024-01-15T12:34:29;3.60;99.90
26803;DHT22;14378;51.796;5.808;2024-01-15T12:36:31;3.50;99.90
26803;DHT22;14378;51.796;5.808;2024-01-15T12:38:32;3.60;99.90
26803;DHT22;14378;51.796;5.808;2024-01-15T12:40:33;3.60;99.90
26803;DHT22;14378;51.796;5.808;2024-01-15T12:42:44;3.70;99.90
26803;DHT22;14378;51.796;5.808;2024-01-15T12:44:45;3.70;99.90
26803;DHT22;14378;51.796;5.808;2024-01-15T12:46:47;3.70;99.90
26803;DHT22;14378;51.796;5.808;2024-01-15T12:48:48;3.70;99.90
26803;DHT22;14378;51.796;5.808;2024-01-15T12:50:52;3.70;99.90
26803;DHT22;14378;51.796;5.808;2024-01-15T12:52:53;3.70;99.90
26803;DHT22;14378;51.796;5.808;2024-01-15T12:54:54;3.60;99.90
26803;DHT22;14378;51.796;5.808;2024-01-15T12:56:56;3.60;99.90
26803;DHT22;14378;51.796;5.808;2024-01-15T12:59:03;3.70;99.90
26803;DHT22;14378;51.796;5.808;2024-01-15T13:01:04;3.70;99.90
26803;DHT22;14378;51.796;5.808;2024-01-15T13:03:06;3.70;99.90
26803;DHT22;14378;51.796;5.808;2024-01-15T13:05:09;3.70;99.90
26803;DHT22;14378;51.796;5.808;2024-01-15T13:07:17;3.80;99.90
26803;DHT22;14378;51.796;5.808;2024-01-15T13:09:18;3.80;99.90